Список аэропортов
Фактическая погода:

24 мая, 16:00
Температура: +30°C (+30.0*)
Ветер: восточный 2 м/с
Давление: *764 мм
Без существ. явл.
Время (МСК)Темп. СВетерВлажностьДавлениеОблачностьОсадки
15:00+29ЮВ, 2 м/с23%1017 гПаясно
16:00+30ЮВ, 2 м/с22%1016 гПаясно
17:00+31ЮВ, 1 м/с21%1015 гПаясно
18:00+31ЮВ, 1 м/с20%1015 гПаясно
19:00+31ЮВ, 1 м/с19%1014 гПаясно
20:00+31В, 1 м/с18%1014 гПаясно
21:00+31В, 2 м/с19%1014 гПаясно
22:00+29ЮВ, 1 м/с24%1014 гПаясно
23:00+26ЮВ, 1 м/с34%1015 гПамалооблачно
25 мая
00:00+24ЮВ, 1 м/с38%1016 гПас прояснениями
01:00+24ЮВ, 3 м/с32%1016 гПаясно
02:00+22ЮВ, 4 м/с38%1016 гПаясно
03:00+21ЮВ, 2 м/с45%1017 гПаясно
04:00+19СВ, 2 м/с52%1018 гПаясно
05:00+18СВ, 1 м/с59%1018 гПаясно
06:00+16СВ, 2 м/с62%1018 гПамалооблачно
07:00+15СВ, 2 м/с66%1018 гПамалооблачно
08:00+14С, 2 м/с72%1018 гПаясно
09:00+14С, 2 м/с71%1018 гПаясно
10:00+18С, 2 м/с55%1018 гПаоблачно
11:00+22СВ, 2 м/с41%1017 гПаоблачно
12:00+24В, 2 м/с35%1017 гПас прояснениями
13:00+26ЮВ, 2 м/с28%1016 гПаясно
14:00+28ЮВ, 2 м/с24%1015 гПаясно
15:00+30ЮВ, 2 м/с21%1014 гПаясно
16:00+31ЮВ, 2 м/с19%1013 гПаясно
17:00+32Ю, 2 м/с18%1012 гПаясно
18:00+32Ю, 2 м/с16%1012 гПаясно
19:00+32Ю, 2 м/с16%1011 гПаясно
20:00+32Ю, 1 м/с15%1011 гПаясно
21:00+32Ю, 1 м/с15%1011 гПаясно
22:00+30Ю, 1 м/с24%1011 гПаясно
23:00+26Штиль 32%1012 гПаясно
26 мая
00:00+24СВ, 1 м/с33%1013 гПаясно
01:00+22СВ, 1 м/с37%1013 гПаясно
02:00+21СВ, 2 м/с41%1013 гПаясно
03:00+20СВ, 2 м/с45%1014 гПаясно
04:00+19В, 2 м/с48%1014 гПамалооблачно
05:00+19В, 2 м/с49%1014 гПас прояснениями
06:00+18СВ, 2 м/с53%1014 гПаясно
07:00+16С, 2 м/с59%1014 гПаясно
08:00+15С, 2 м/с64%1015 гПаясно
09:00+16С, 2 м/с64%1015 гПаясно
10:00+19СВ, 2 м/с51%1014 гПаясно
11:00+23В, 2 м/с36%1014 гПаясно
12:00+25В, 2 м/с33%1014 гПамалооблачно
13:00+28ЮВ, 2 м/с30%1013 гПаясно
14:00+30Ю, 3 м/с28%1012 гПаясно
15:00+32Ю, 3 м/с26%1012 гПаясно